sensor_id;sensor_type;location;lat;lon;timestamp;P1;durP1;ratioP1;P2;durP2;ratioP2
8104;SDS011;4095;48.942;9.104;2022-10-26T00:00:23;6.77;;;4.50;;
8104;SDS011;4095;48.942;9.104;2022-10-26T00:02:53;5.13;;;4.30;;
8104;SDS011;4095;48.942;9.104;2022-10-26T00:05:19;7.90;;;4.60;;
8104;SDS011;4095;48.942;9.104;2022-10-26T00:07:46;6.10;;;4.23;;
8104;SDS011;4095;48.942;9.104;2022-10-26T00:10:12;6.27;;;4.60;;
8104;SDS011;4095;48.942;9.104;2022-10-26T00:12:37;8.73;;;5.43;;
8104;SDS011;4095;48.942;9.104;2022-10-26T00:15:04;5.53;;;4.43;;
8104;SDS011;4095;48.942;9.104;2022-10-26T00:17:30;8.20;;;5.03;;
8104;SDS011;4095;48.942;9.104;2022-10-26T00:19:56;7.07;;;4.30;;
8104;SDS011;4095;48.942;9.104;2022-10-26T00:22:22;5.00;;;4.10;;
8104;SDS011;4095;48.942;9.104;2022-10-26T00:24:47;7.47;;;4.07;;
8104;SDS011;4095;48.942;9.104;2022-10-26T00:27:13;8.60;;;4.37;;
8104;SDS011;4095;48.942;9.104;2022-10-26T00:29:39;6.33;;;4.07;;
8104;SDS011;4095;48.942;9.104;2022-10-26T00:32:04;6.50;;;4.10;;
8104;SDS011;4095;48.942;9.104;2022-10-26T00:34:30;5.23;;;3.80;;
8104;SDS011;4095;48.942;9.104;2022-10-26T00:36:56;7.33;;;4.67;;
8104;SDS011;4095;48.942;9.104;2022-10-26T00:39:22;10.63;;;4.50;;
8104;SDS011;4095;48.942;9.104;2022-10-26T00:41:48;7.47;;;4.00;;
8104;SDS011;4095;48.942;9.104;2022-10-26T00:49:54;7.10;;;4.77;;
8104;SDS011;4095;48.942;9.104;2022-10-26T00:52:21;7.70;;;4.40;;
8104;SDS011;4095;48.942;9.104;2022-10-26T00:54:48;7.87;;;4.43;;
8104;SDS011;4095;48.942;9.104;2022-10-26T00:57:15;6.07;;;4.60;;
8104;SDS011;4095;48.942;9.104;2022-10-26T00:59:42;6.30;;;4.13;;
8104;SDS011;4095;48.942;9.104;2022-10-26T01:02:09;8.33;;;4.40;;
8104;SDS011;4095;48.942;9.104;2022-10-26T01:04:36;6.60;;;4.43;;
8104;SDS011;4095;48.942;9.104;2022-10-26T01:07:03;5.67;;;4.17;;
8104;SDS011;4095;48.942;9.104;2022-10-26T01:09:30;7.13;;;4.30;;
8104;SDS011;4095;48.942;9.104;2022-10-26T01:11:57;6.43;;;4.30;;
8104;SDS011;4095;48.942;9.104;2022-10-26T01:14:23;8.03;;;4.17;;
8104;SDS011;4095;48.942;9.104;2022-10-26T01:17:01;8.23;;;4.80;;
8104;SDS011;4095;48.942;9.104;2022-10-26T01:27:48;8.43;;;4.30;;
8104;SDS011;4095;48.942;9.104;2022-10-26T01:35:39;7.13;;;4.47;;
8104;SDS011;4095;48.942;9.104;2022-10-26T01:40:59;7.33;;;4.43;;
8104;SDS011;4095;48.942;9.104;2022-10-26T01:43:41;7.47;;;4.87;;
8104;SDS011;4095;48.942;9.104;2022-10-26T01:46:10;7.43;;;4.47;;
8104;SDS011;4095;48.942;9.104;2022-10-26T01:48:37;5.87;;;4.63;;
8104;SDS011;4095;48.942;9.104;2022-10-26T01:51:05;7.87;;;4.10;;
8104;SDS011;4095;48.942;9.104;2022-10-26T01:53:33;7.53;;;4.40;;
8104;SDS011;4095;48.942;9.104;2022-10-26T01:55:58;6.07;;;4.43;;
8104;SDS011;4095;48.942;9.104;2022-10-26T02:01:15;9.00;;;4.30;;
8104;SDS011;4095;48.942;9.104;2022-10-26T02:03:48;6.77;;;4.30;;
8104;SDS011;4095;48.942;9.104;2022-10-26T02:12:40;4.83;;;3.77;;
8104;SDS011;4095;48.942;9.104;2022-10-26T02:17:48;6.23;;;3.97;;
8104;SDS011;4095;48.942;9.104;2022-10-26T02:20:23;9.00;;;4.53;;
8104;SDS011;4095;48.942;9.104;2022-10-26T02:22:56;4.77;;;3.90;;
8104;SDS011;4095;48.942;9.104;2022-10-26T02:25:26;10.27;;;4.67;;
8104;SDS011;4095;48.942;9.104;2022-10-26T02:27:58;11.37;;;4.40;;
8104;SDS011;4095;48.942;9.104;2022-10-26T02:30:31;10.60;;;4.27;;
8104;SDS011;4095;48.942;9.104;2022-10-26T02:32:59;6.60;;;3.83;;
8104;SDS011;4095;48.942;9.104;2022-10-26T02:35:30;6.80;;;4.30;;
8104;SDS011;4095;48.942;9.104;2022-10-26T02:37:58;6.57;;;3.77;;
8104;SDS011;4095;48.942;9.104;2022-10-26T02:40:27;5.83;;;4.40;;
8104;SDS011;4095;48.942;9.104;2022-10-26T02:42:54;6.50;;;4.63;;
8104;SDS011;4095;48.942;9.104;2022-10-26T02:45:25;7.83;;;4.90;;
8104;SDS011;4095;48.942;9.104;2022-10-26T02:47:54;6.23;;;4.23;;
8104;SDS011;4095;48.942;9.104;2022-10-26T02:50:21;6.43;;;4.27;;
8104;SDS011;4095;48.942;9.104;2022-10-26T02:53:09;7.07;;;4.70;;
8104;SDS011;4095;48.942;9.104;2022-10-26T02:55:49;7.77;;;4.13;;
8104;SDS011;4095;48.942;9.104;2022-10-26T02:58:16;6.53;;;4.63;;
8104;SDS011;4095;48.942;9.104;2022-10-26T03:00:46;9.03;;;4.33;;
8104;SDS011;4095;48.942;9.104;2022-10-26T03:03:12;5.23;;;4.40;;
8104;SDS011;4095;48.942;9.104;2022-10-26T03:05:40;6.37;;;4.30;;
8104;SDS011;4095;48.942;9.104;2022-10-26T03:08:07;7.77;;;4.37;;
8104;SDS011;4095;48.942;9.104;2022-10-26T03:10:33;5.33;;;4.27;;
8104;SDS011;4095;48.942;9.104;2022-10-26T03:13:09;6.13;;;4.60;;
8104;SDS011;4095;48.942;9.104;2022-10-26T03:15:36;7.93;;;4.20;;
8104;SDS011;4095;48.942;9.104;2022-10-26T03:18:03;7.07;;;4.17;;
8104;SDS011;4095;48.942;9.104;2022-10-26T03:20:29;7.13;;;4.43;;
8104;SDS011;4095;48.942;9.104;2022-10-26T03:22:55;6.40;;;4.77;;
8104;SDS011;4095;48.942;9.104;2022-10-26T03:25:21;8.27;;;4.17;;
8104;SDS011;4095;48.942;9.104;2022-10-26T03:27:54;9.00;;;4.63;;
8104;SDS011;4095;48.942;9.104;2022-10-26T03:30:24;6.17;;;4.30;;
8104;SDS011;4095;48.942;9.104;2022-10-26T03:32:50;6.67;;;4.47;;
8104;SDS011;4095;48.942;9.104;2022-10-26T03:35:15;7.40;;;4.30;;
8104;SDS011;4095;48.942;9.104;2022-10-26T03:37:41;6.47;;;4.87;;
8104;SDS011;4095;48.942;9.104;2022-10-26T03:40:07;6.73;;;4.80;;
8104;SDS011;4095;48.942;9.104;2022-10-26T03:42:35;7.33;;;4.67;;
8104;SDS011;4095;48.942;9.104;2022-10-26T03:45:01;7.40;;;4.40;;
8104;SDS011;4095;48.942;9.104;2022-10-26T03:47:27;8.43;;;4.30;;
8104;SDS011;4095;48.942;9.104;2022-10-26T03:49:52;5.73;;;4.33;;
8104;SDS011;4095;48.942;9.104;2022-10-26T03:52:18;7.53;;;4.40;;
8104;SDS011;4095;48.942;9.104;2022-10-26T03:54:43;4.90;;;4.10;;
8104;SDS011;4095;48.942;9.104;2022-10-26T03:57:09;7.87;;;4.30;;
8104;SDS011;4095;48.942;9.104;2022-10-26T03:59:34;6.40;;;4.27;;
8104;SDS011;4095;48.942;9.104;2022-10-26T04:02:01;5.67;;;4.13;;
8104;SDS011;4095;48.942;9.104;2022-10-26T04:04:27;6.70;;;4.37;;
8104;SDS011;4095;48.942;9.104;2022-10-26T04:06:52;6.20;;;4.53;;
8104;SDS011;4095;48.942;9.104;2022-10-26T04:09:18;8.47;;;4.67;;
8104;SDS011;4095;48.942;9.104;2022-10-26T04:11:44;8.43;;;4.90;;
8104;SDS011;4095;48.942;9.104;2022-10-26T04:14:09;6.13;;;4.27;;
8104;SDS011;4095;48.942;9.104;2022-10-26T04:16:35;6.23;;;4.40;;
8104;SDS011;4095;48.942;9.104;2022-10-26T04:19:00;8.23;;;4.60;;
8104;SDS011;4095;48.942;9.104;2022-10-26T04:21:26;7.00;;;4.40;;
8104;SDS011;4095;48.942;9.104;2022-10-26T04:23:52;7.50;;;4.33;;
8104;SDS011;4095;48.942;9.104;2022-10-26T04:26:17;7.97;;;4.37;;
8104;SDS011;4095;48.942;9.104;2022-10-26T04:28:43;8.50;;;4.90;;
8104;SDS011;4095;48.942;9.104;2022-10-26T04:31:08;6.50;;;4.10;;
8104;SDS011;4095;48.942;9.104;2022-10-26T04:33:34;8.27;;;4.43;;
8104;SDS011;4095;48.942;9.104;2022-10-26T04:35:59;10.27;;;4.63;;
8104;SDS011;4095;48.942;9.104;2022-10-26T04:38:25;8.70;;;5.23;;
8104;SDS011;4095;48.942;9.104;2022-10-26T04:40:51;6.87;;;4.40;;
8104;SDS011;4095;48.942;9.104;2022-10-26T04:43:17;7.60;;;4.43;;
8104;SDS011;4095;48.942;9.104;2022-10-26T04:45:43;7.80;;;4.77;;
8104;SDS011;4095;48.942;9.104;2022-10-26T04:48:09;7.10;;;4.33;;
8104;SDS011;4095;48.942;9.104;2022-10-26T04:50:36;7.60;;;3.80;;
8104;SDS011;4095;48.942;9.104;2022-10-26T04:53:03;6.20;;;4.20;;
8104;SDS011;4095;48.942;9.104;2022-10-26T04:55:29;6.10;;;4.40;;
8104;SDS011;4095;48.942;9.104;2022-10-26T04:57:55;5.80;;;4.13;;
8104;SDS011;4095;48.942;9.104;2022-10-26T05:00:21;5.73;;;4.20;;
8104;SDS011;4095;48.942;9.104;2022-10-26T05:02:46;5.47;;;4.07;;
8104;SDS011;4095;48.942;9.104;2022-10-26T05:05:12;6.17;;;4.20;;
8104;SDS011;4095;48.942;9.104;2022-10-26T05:07:38;5.03;;;3.97;;
8104;SDS011;4095;48.942;9.104;2022-10-26T05:10:04;6.00;;;4.03;;
8104;SDS011;4095;48.942;9.104;2022-10-26T05:12:29;8.43;;;4.47;;
8104;SDS011;4095;48.942;9.104;2022-10-26T05:14:55;8.63;;;4.37;;
8104;SDS011;4095;48.942;9.104;2022-10-26T05:17:23;7.93;;;4.47;;
8104;SDS011;4095;48.942;9.104;2022-10-26T05:19:49;10.97;;;4.40;;
8104;SDS011;4095;48.942;9.104;2022-10-26T05:22:20;5.90;;;4.07;;
8104;SDS011;4095;48.942;9.104;2022-10-26T05:24:46;6.87;;;4.63;;
8104;SDS011;4095;48.942;9.104;2022-10-26T05:27:11;6.97;;;4.13;;
8104;SDS011;4095;48.942;9.104;2022-10-26T05:29:37;6.97;;;4.53;;
8104;SDS011;4095;48.942;9.104;2022-10-26T05:32:03;6.50;;;4.63;;
8104;SDS011;4095;48.942;9.104;2022-10-26T05:34:29;5.80;;;4.57;;
8104;SDS011;4095;48.942;9.104;2022-10-26T05:36:54;6.80;;;4.63;;
8104;SDS011;4095;48.942;9.104;2022-10-26T05:39:20;7.73;;;5.50;;
8104;SDS011;4095;48.942;9.104;2022-10-26T05:41:46;5.87;;;4.17;;
8104;SDS011;4095;48.942;9.104;2022-10-26T05:44:11;7.40;;;4.77;;
8104;SDS011;4095;48.942;9.104;2022-10-26T05:46:37;8.43;;;4.13;;
8104;SDS011;4095;48.942;9.104;2022-10-26T05:49:02;7.63;;;4.80;;
8104;SDS011;4095;48.942;9.104;2022-10-26T05:51:28;7.20;;;4.57;;
8104;SDS011;4095;48.942;9.104;2022-10-26T05:53:56;8.10;;;4.30;;
8104;SDS011;4095;48.942;9.104;2022-10-26T05:59:01;6.30;;;4.47;;
8104;SDS011;4095;48.942;9.104;2022-10-26T06:01:30;6.33;;;4.27;;
8104;SDS011;4095;48.942;9.104;2022-10-26T06:04:06;5.93;;;4.23;;
8104;SDS011;4095;48.942;9.104;2022-10-26T06:06:41;7.30;;;4.47;;
8104;SDS011;4095;48.942;9.104;2022-10-26T06:09:12;9.30;;;4.43;;
8104;SDS011;4095;48.942;9.104;2022-10-26T06:11:39;7.60;;;4.30;;
8104;SDS011;4095;48.942;9.104;2022-10-26T06:14:05;7.67;;;4.70;;
8104;SDS011;4095;48.942;9.104;2022-10-26T06:19:46;10.17;;;4.73;;
8104;SDS011;4095;48.942;9.104;2022-10-26T06:24:30;7.57;;;5.17;;
8104;SDS011;4095;48.942;9.104;2022-10-26T06:27:41;7.67;;;4.40;;
8104;SDS011;4095;48.942;9.104;2022-10-26T06:30:22;7.40;;;4.70;;
8104;SDS011;4095;48.942;9.104;2022-10-26T06:32:47;6.63;;;4.00;;
8104;SDS011;4095;48.942;9.104;2022-10-26T06:35:49;5.73;;;3.50;;
8104;SDS011;4095;48.942;9.104;2022-10-26T06:38:14;8.43;;;4.40;;
8104;SDS011;4095;48.942;9.104;2022-10-26T06:40:42;6.23;;;4.37;;
8104;SDS011;4095;48.942;9.104;2022-10-26T06:43:12;7.23;;;4.03;;
8104;SDS011;4095;48.942;9.104;2022-10-26T06:51:25;5.60;;;3.03;;
8104;SDS011;4095;48.942;9.104;2022-10-26T06:54:03;7.77;;;2.60;;
8104;SDS011;4095;48.942;9.104;2022-10-26T06:56:37;4.50;;;2.77;;
8104;SDS011;4095;48.942;9.104;2022-10-26T06:59:07;3.67;;;2.63;;
8104;SDS011;4095;48.942;9.104;2022-10-26T07:01:38;4.60;;;2.80;;
8104;SDS011;4095;48.942;9.104;2022-10-26T07:04:04;5.80;;;4.50;;
8104;SDS011;4095;48.942;9.104;2022-10-26T07:06:29;7.17;;;4.00;;
8104;SDS011;4095;48.942;9.104;2022-10-26T07:08:55;5.93;;;3.27;;
8104;SDS011;4095;48.942;9.104;2022-10-26T07:11:21;5.40;;;3.37;;
8104;SDS011;4095;48.942;9.104;2022-10-26T07:13:46;4.13;;;3.57;;
8104;SDS011;4095;48.942;9.104;2022-10-26T07:16:13;5.13;;;3.57;;
8104;SDS011;4095;48.942;9.104;2022-10-26T07:18:39;4.50;;;3.33;;
8104;SDS011;4095;48.942;9.104;2022-10-26T07:21:05;4.57;;;3.37;;
8104;SDS011;4095;48.942;9.104;2022-10-26T07:23:30;9.47;;;3.93;;
8104;SDS011;4095;48.942;9.104;2022-10-26T07:25:58;6.20;;;4.10;;
8104;SDS011;4095;48.942;9.104;2022-10-26T07:28:24;17.77;;;11.53;;
8104;SDS011;4095;48.942;9.104;2022-10-26T07:30:49;18.23;;;12.07;;
8104;SDS011;4095;48.942;9.104;2022-10-26T07:33:15;18.20;;;11.57;;
8104;SDS011;4095;48.942;9.104;2022-10-26T07:35:41;16.37;;;9.93;;
8104;SDS011;4095;48.942;9.104;2022-10-26T07:38:06;11.03;;;8.20;;
8104;SDS011;4095;48.942;9.104;2022-10-26T07:40:36;12.43;;;7.70;;
8104;SDS011;4095;48.942;9.104;2022-10-26T07:43:02;9.27;;;5.47;;
8104;SDS011;4095;48.942;9.104;2022-10-26T07:45:28;9.37;;;5.03;;
8104;SDS011;4095;48.942;9.104;2022-10-26T07:47:54;6.83;;;4.53;;
8104;SDS011;4095;48.942;9.104;2022-10-26T07:50:20;6.63;;;4.73;;
8104;SDS011;4095;48.942;9.104;2022-10-26T07:52:47;5.77;;;4.70;;
8104;SDS011;4095;48.942;9.104;2022-10-26T07:55:12;5.27;;;4.50;;
8104;SDS011;4095;48.942;9.104;2022-10-26T07:57:38;6.93;;;4.97;;
8104;SDS011;4095;48.942;9.104;2022-10-26T08:00:05;6.40;;;5.03;;
8104;SDS011;4095;48.942;9.104;2022-10-26T08:02:32;7.00;;;5.60;;
8104;SDS011;4095;48.942;9.104;2022-10-26T08:04:57;7.37;;;5.57;;
8104;SDS011;4095;48.942;9.104;2022-10-26T08:07:23;7.20;;;4.60;;
8104;SDS011;4095;48.942;9.104;2022-10-26T08:09:50;5.87;;;4.70;;
8104;SDS011;4095;48.942;9.104;2022-10-26T08:12:16;8.53;;;5.20;;
8104;SDS011;4095;48.942;9.104;2022-10-26T08:14:41;5.70;;;4.90;;
8104;SDS011;4095;48.942;9.104;2022-10-26T08:17:07;9.13;;;4.20;;
8104;SDS011;4095;48.942;9.104;2022-10-26T08:19:33;6.07;;;4.03;;
8104;SDS011;4095;48.942;9.104;2022-10-26T08:21:59;8.43;;;4.13;;
8104;SDS011;4095;48.942;9.104;2022-10-26T08:24:25;6.53;;;3.60;;
8104;SDS011;4095;48.942;9.104;2022-10-26T08:26:50;8.17;;;3.70;;
8104;SDS011;4095;48.942;9.104;2022-10-26T08:29:16;9.70;;;4.00;;
8104;SDS011;4095;48.942;9.104;2022-10-26T08:31:42;7.37;;;3.67;;
8104;SDS011;4095;48.942;9.104;2022-10-26T08:34:07;8.43;;;4.67;;
8104;SDS011;4095;48.942;9.104;2022-10-26T08:36:33;8.33;;;4.70;;
8104;SDS011;4095;48.942;9.104;2022-10-26T08:38:59;7.57;;;4.77;;
8104;SDS011;4095;48.942;9.104;2022-10-26T08:41:35;8.63;;;4.50;;
8104;SDS011;4095;48.942;9.104;2022-10-26T08:47:17;12.57;;;5.00;;
8104;SDS011;4095;48.942;9.104;2022-10-26T08:52:32;6.47;;;4.50;;
8104;SDS011;4095;48.942;9.104;2022-10-26T08:55:42;9.20;;;4.80;;
8104;SDS011;4095;48.942;9.104;2022-10-26T08:58:15;6.20;;;4.57;;
8104;SDS011;4095;48.942;9.104;2022-10-26T09:00:44;7.33;;;4.60;;
8104;SDS011;4095;48.942;9.104;2022-10-26T09:03:16;5.57;;;4.03;;
8104;SDS011;4095;48.942;9.104;2022-10-26T09:05:55;12.23;;;4.37;;
8104;SDS011;4095;48.942;9.104;2022-10-26T09:14:09;5.80;;;2.90;;
8104;SDS011;4095;48.942;9.104;2022-10-26T09:22:41;5.17;;;2.67;;
8104;SDS011;4095;48.942;9.104;2022-10-26T09:25:19;4.00;;;2.47;;
8104;SDS011;4095;48.942;9.104;2022-10-26T09:27:51;4.20;;;2.17;;
8104;SDS011;4095;48.942;9.104;2022-10-26T09:30:20;8.47;;;2.80;;
8104;SDS011;4095;48.942;9.104;2022-10-26T09:32:48;6.07;;;2.33;;
8104;SDS011;4095;48.942;9.104;2022-10-26T09:38:43;5.63;;;2.60;;
8104;SDS011;4095;48.942;9.104;2022-10-26T09:41:03;6.47;;;2.20;;
8104;SDS011;4095;48.942;9.104;2022-10-26T09:46:08;6.50;;;2.00;;
8104;SDS011;4095;48.942;9.104;2022-10-26T09:49:13;5.07;;;2.27;;
8104;SDS011;4095;48.942;9.104;2022-10-26T09:51:34;4.70;;;2.67;;
8104;SDS011;4095;48.942;9.104;2022-10-26T09:54:04;3.67;;;2.10;;
8104;SDS011;4095;48.942;9.104;2022-10-26T09:56:37;4.97;;;2.37;;
8104;SDS011;4095;48.942;9.104;2022-10-26T09:59:04;7.30;;;2.80;;
8104;SDS011;4095;48.942;9.104;2022-10-26T10:01:31;6.50;;;2.40;;
8104;SDS011;4095;48.942;9.104;2022-10-26T10:06:37;4.40;;;2.60;;
8104;SDS011;4095;48.942;9.104;2022-10-26T10:09:08;6.30;;;2.27;;
8104;SDS011;4095;48.942;9.104;2022-10-26T10:11:40;4.80;;;2.17;;
8104;SDS011;4095;48.942;9.104;2022-10-26T10:14:25;5.07;;;2.50;;
8104;SDS011;4095;48.942;9.104;2022-10-26T10:17:04;7.77;;;2.37;;
8104;SDS011;4095;48.942;9.104;2022-10-26T10:19:36;7.87;;;2.90;;
8104;SDS011;4095;48.942;9.104;2022-10-26T10:24:51;5.75;;;2.30;;
8104;SDS011;4095;48.942;9.104;2022-10-26T10:27:19;4.57;;;2.20;;
8104;SDS011;4095;48.942;9.104;2022-10-26T10:32:17;8.10;;;2.28;;
8104;SDS011;4095;48.942;9.104;2022-10-26T10:34:45;5.18;;;2.17;;
8104;SDS011;4095;48.942;9.104;2022-10-26T10:37:21;5.20;;;2.22;;
8104;SDS011;4095;48.942;9.104;2022-10-26T10:39:57;4.30;;;1.98;;
8104;SDS011;4095;48.942;9.104;2022-10-26T10:42:32;4.57;;;2.20;;
8104;SDS011;4095;48.942;9.104;2022-10-26T10:44:59;6.25;;;2.40;;
8104;SDS011;4095;48.942;9.104;2022-10-26T10:47:30;7.78;;;2.40;;
8104;SDS011;4095;48.942;9.104;2022-10-26T10:50:05;4.93;;;2.30;;
8104;SDS011;4095;48.942;9.104;2022-10-26T10:52:37;7.13;;;2.35;;
8104;SDS011;4095;48.942;9.104;2022-10-26T10:55:19;7.43;;;2.50;;
8104;SDS011;4095;48.942;9.104;2022-10-26T11:00:24;5.20;;;2.08;;
8104;SDS011;4095;48.942;9.104;2022-10-26T11:02:57;6.00;;;2.38;;
8104;SDS011;4095;48.942;9.104;2022-10-26T11:05:48;5.25;;;2.33;;
8104;SDS011;4095;48.942;9.104;2022-10-26T11:16:56;6.93;;;2.42;;
8104;SDS011;4095;48.942;9.104;2022-10-26T11:19:41;7.13;;;2.50;;
8104;SDS011;4095;48.942;9.104;2022-10-26T11:22:13;6.63;;;2.35;;
8104;SDS011;4095;48.942;9.104;2022-10-26T11:24:48;4.10;;;2.30;;
8104;SDS011;4095;48.942;9.104;2022-10-26T11:29:46;7.00;;;2.13;;
8104;SDS011;4095;48.942;9.104;2022-10-26T11:32:41;4.63;;;2.30;;
8104;SDS011;4095;48.942;9.104;2022-10-26T11:35:25;6.68;;;2.28;;
8104;SDS011;4095;48.942;9.104;2022-10-26T11:43:38;4.03;;;2.10;;
8104;SDS011;4095;48.942;9.104;2022-10-26T11:51:50;4.03;;;1.80;;
8104;SDS011;4095;48.942;9.104;2022-10-26T11:56:55;4.25;;;1.77;;
8104;SDS011;4095;48.942;9.104;2022-10-26T11:59:29;5.13;;;1.98;;
8104;SDS011;4095;48.942;9.104;2022-10-26T12:01:59;5.13;;;2.10;;
8104;SDS011;4095;48.942;9.104;2022-10-26T12:04:31;5.30;;;2.03;;
8104;SDS011;4095;48.942;9.104;2022-10-26T12:07:01;2.42;;;1.50;;
8104;SDS011;4095;48.942;9.104;2022-10-26T12:09:33;6.68;;;2.25;;
8104;SDS011;4095;48.942;9.104;2022-10-26T12:12:25;7.15;;;2.10;;
8104;SDS011;4095;48.942;9.104;2022-10-26T12:17:55;6.60;;;2.15;;
8104;SDS011;4095;48.942;9.104;2022-10-26T12:23:09;6.90;;;2.10;;
8104;SDS011;4095;48.942;9.104;2022-10-26T12:25:36;5.80;;;2.17;;
8104;SDS011;4095;48.942;9.104;2022-10-26T12:28:02;3.40;;;2.10;;
8104;SDS011;4095;48.942;9.104;2022-10-26T12:33:00;6.05;;;2.03;;
8104;SDS011;4095;48.942;9.104;2022-10-26T12:35:47;6.07;;;2.30;;
8104;SDS011;4095;48.942;9.104;2022-10-26T12:48:45;5.22;;;2.25;;
8104;SDS011;4095;48.942;9.104;2022-10-26T12:59:09;5.45;;;2.28;;
8104;SDS011;4095;48.942;9.104;2022-10-26T13:07:18;5.57;;;2.10;;
8104;SDS011;4095;48.942;9.104;2022-10-26T13:12:21;6.43;;;2.22;;
8104;SDS011;4095;48.942;9.104;2022-10-26T13:15:00;6.00;;;2.13;;
8104;SDS011;4095;48.942;9.104;2022-10-26T13:17:30;6.13;;;2.42;;
8104;SDS011;4095;48.942;9.104;2022-10-26T13:19:58;6.47;;;1.98;;
8104;SDS011;4095;48.942;9.104;2022-10-26T13:22:25;7.10;;;2.05;;
8104;SDS011;4095;48.942;9.104;2022-10-26T13:24:53;6.05;;;1.98;;
8104;SDS011;4095;48.942;9.104;2022-10-26T13:32:29;6.55;;;2.20;;
8104;SDS011;4095;48.942;9.104;2022-10-26T13:34:58;6.22;;;2.40;;
8104;SDS011;4095;48.942;9.104;2022-10-26T13:37:26;9.15;;;2.35;;
8104;SDS011;4095;48.942;9.104;2022-10-26T13:39:54;5.45;;;2.10;;
8104;SDS011;4095;48.942;9.104;2022-10-26T13:42:21;5.60;;;2.30;;
8104;SDS011;4095;48.942;9.104;2022-10-26T13:44:51;5.43;;;2.00;;
8104;SDS011;4095;48.942;9.104;2022-10-26T13:50:17;5.80;;;2.10;;
8104;SDS011;4095;48.942;9.104;2022-10-26T13:52:47;3.78;;;2.15;;
8104;SDS011;4095;48.942;9.104;2022-10-26T13:55:23;4.93;;;2.58;;
8104;SDS011;4095;48.942;9.104;2022-10-26T14:00:29;9.60;;;4.40;;
8104;SDS011;4095;48.942;9.104;2022-10-26T14:02:55;4.72;;;2.50;;
8104;SDS011;4095;48.942;9.104;2022-10-26T14:05:21;5.55;;;2.58;;
8104;SDS011;4095;48.942;9.104;2022-10-26T14:07:48;9.55;;;2.97;;
8104;SDS011;4095;48.942;9.104;2022-10-26T14:12:49;7.05;;;2.47;;
8104;SDS011;4095;48.942;9.104;2022-10-26T14:15:15;4.07;;;2.08;;
8104;SDS011;4095;48.942;9.104;2022-10-26T14:17:50;5.53;;;2.55;;
8104;SDS011;4095;48.942;9.104;2022-10-26T14:20:19;4.85;;;2.25;;
8104;SDS011;4095;48.942;9.104;2022-10-26T14:22:47;5.07;;;2.20;;
8104;SDS011;4095;48.942;9.104;2022-10-26T14:25:20;5.17;;;2.20;;
8104;SDS011;4095;48.942;9.104;2022-10-26T14:27:48;4.43;;;2.20;;
8104;SDS011;4095;48.942;9.104;2022-10-26T14:32:51;6.05;;;2.50;;
8104;SDS011;4095;48.942;9.104;2022-10-26T14:35:18;4.87;;;2.27;;
8104;SDS011;4095;48.942;9.104;2022-10-26T14:37:51;9.40;;;2.57;;
8104;SDS011;4095;48.942;9.104;2022-10-26T14:40:21;4.57;;;2.37;;
8104;SDS011;4095;48.942;9.104;2022-10-26T14:42:56;5.93;;;2.30;;
8104;SDS011;4095;48.942;9.104;2022-10-26T14:45:26;6.43;;;2.27;;
8104;SDS011;4095;48.942;9.104;2022-10-26T14:47:55;7.53;;;2.47;;
8104;SDS011;4095;48.942;9.104;2022-10-26T14:50:22;5.03;;;2.37;;
8104;SDS011;4095;48.942;9.104;2022-10-26T14:52:53;8.77;;;2.53;;
8104;SDS011;4095;48.942;9.104;2022-10-26T14:55:20;5.03;;;2.73;;
8104;SDS011;4095;48.942;9.104;2022-10-26T14:57:47;6.30;;;2.47;;
8104;SDS011;4095;48.942;9.104;2022-10-26T15:00:19;5.27;;;2.20;;
8104;SDS011;4095;48.942;9.104;2022-10-26T15:02:55;5.33;;;2.50;;
8104;SDS011;4095;48.942;9.104;2022-10-26T15:07:48;7.40;;;2.30;;
8104;SDS011;4095;48.942;9.104;2022-10-26T15:15:43;3.67;;;2.00;;
8104;SDS011;4095;48.942;9.104;2022-10-26T15:18:15;4.73;;;2.60;;
8104;SDS011;4095;48.942;9.104;2022-10-26T15:20:48;4.90;;;2.47;;
8104;SDS011;4095;48.942;9.104;2022-10-26T15:23:15;4.60;;;1.97;;
8104;SDS011;4095;48.942;9.104;2022-10-26T15:25:48;4.87;;;2.23;;
8104;SDS011;4095;48.942;9.104;2022-10-26T15:33:41;3.50;;;2.00;;
8104;SDS011;4095;48.942;9.104;2022-10-26T15:36:28;6.20;;;2.13;;
8104;SDS011;4095;48.942;9.104;2022-10-26T15:38:57;7.60;;;2.30;;
8104;SDS011;4095;48.942;9.104;2022-10-26T15:41:30;5.37;;;2.57;;
8104;SDS011;4095;48.942;9.104;2022-10-26T15:43:59;3.87;;;2.23;;
8104;SDS011;4095;48.942;9.104;2022-10-26T15:46:31;5.70;;;2.60;;
8104;SDS011;4095;48.942;9.104;2022-10-26T15:48:59;4.20;;;2.13;;
8104;SDS011;4095;48.942;9.104;2022-10-26T15:51:29;5.53;;;2.63;;
8104;SDS011;4095;48.942;9.104;2022-10-26T15:53:58;5.10;;;2.50;;
8104;SDS011;4095;48.942;9.104;2022-10-26T15:56:26;6.30;;;2.50;;
8104;SDS011;4095;48.942;9.104;2022-10-26T15:58:55;6.90;;;2.70;;
8104;SDS011;4095;48.942;9.104;2022-10-26T16:01:22;6.00;;;2.83;;
8104;SDS011;4095;48.942;9.104;2022-10-26T16:03:50;6.93;;;2.90;;
8104;SDS011;4095;48.942;9.104;2022-10-26T16:06:16;6.93;;;3.93;;
8104;SDS011;4095;48.942;9.104;2022-10-26T16:08:54;6.97;;;3.33;;
8104;SDS011;4095;48.942;9.104;2022-10-26T16:11:31;5.30;;;2.97;;
8104;SDS011;4095;48.942;9.104;2022-10-26T16:13:57;6.57;;;2.90;;
8104;SDS011;4095;48.942;9.104;2022-10-26T16:16:23;5.07;;;2.90;;
8104;SDS011;4095;48.942;9.104;2022-10-26T16:18:52;6.83;;;2.70;;
8104;SDS011;4095;48.942;9.104;2022-10-26T16:21:23;6.37;;;2.90;;
8104;SDS011;4095;48.942;9.104;2022-10-26T16:23:50;8.60;;;4.07;;
8104;SDS011;4095;48.942;9.104;2022-10-26T16:26:18;8.23;;;3.83;;
8104;SDS011;4095;48.942;9.104;2022-10-26T16:28:44;8.37;;;4.40;;
8104;SDS011;4095;48.942;9.104;2022-10-26T16:31:10;5.70;;;3.60;;
8104;SDS011;4095;48.942;9.104;2022-10-26T16:33:38;6.90;;;3.17;;
8104;SDS011;4095;48.942;9.104;2022-10-26T16:36:04;4.37;;;2.90;;
8104;SDS011;4095;48.942;9.104;2022-10-26T16:38:30;11.10;;;5.43;;
8104;SDS011;4095;48.942;9.104;2022-10-26T16:43:34;7.73;;;2.90;;
8104;SDS011;4095;48.942;9.104;2022-10-26T16:46:11;4.83;;;2.57;;
8104;SDS011;4095;48.942;9.104;2022-10-26T16:48:39;3.63;;;2.20;;
8104;SDS011;4095;48.942;9.104;2022-10-26T16:51:06;3.53;;;2.00;;
8104;SDS011;4095;48.942;9.104;2022-10-26T16:53:45;9.10;;;3.17;;
8104;SDS011;4095;48.942;9.104;2022-10-26T16:56:12;6.93;;;2.70;;
8104;SDS011;4095;48.942;9.104;2022-10-26T16:58:40;8.20;;;2.73;;
8104;SDS011;4095;48.942;9.104;2022-10-26T17:01:06;6.53;;;2.57;;
8104;SDS011;4095;48.942;9.104;2022-10-26T17:03:33;6.00;;;2.37;;
8104;SDS011;4095;48.942;9.104;2022-10-26T17:06:03;4.40;;;2.20;;
8104;SDS011;4095;48.942;9.104;2022-10-26T17:08:30;5.83;;;2.20;;
8104;SDS011;4095;48.942;9.104;2022-10-26T17:11:02;6.53;;;3.70;;
8104;SDS011;4095;48.942;9.104;2022-10-26T17:13:28;6.67;;;4.20;;
8104;SDS011;4095;48.942;9.104;2022-10-26T17:15:53;8.47;;;3.57;;
8104;SDS011;4095;48.942;9.104;2022-10-26T17:18:19;4.63;;;2.90;;
8104;SDS011;4095;48.942;9.104;2022-10-26T17:20:48;4.80;;;2.87;;
8104;SDS011;4095;48.942;9.104;2022-10-26T17:23:15;7.23;;;2.97;;
8104;SDS011;4095;48.942;9.104;2022-10-26T17:25:41;8.10;;;4.10;;
8104;SDS011;4095;48.942;9.104;2022-10-26T17:28:06;19.57;;;13.97;;
8104;SDS011;4095;48.942;9.104;2022-10-26T17:30:32;18.93;;;14.27;;
8104;SDS011;4095;48.942;9.104;2022-10-26T17:32:58;13.43;;;10.80;;
8104;SDS011;4095;48.942;9.104;2022-10-26T17:35:23;15.33;;;9.30;;
8104;SDS011;4095;48.942;9.104;2022-10-26T17:37:49;14.70;;;9.00;;
8104;SDS011;4095;48.942;9.104;2022-10-26T17:40:14;13.50;;;9.07;;
8104;SDS011;4095;48.942;9.104;2022-10-26T17:42:40;12.93;;;8.70;;
8104;SDS011;4095;48.942;9.104;2022-10-26T17:45:06;11.97;;;6.80;;
8104;SDS011;4095;48.942;9.104;2022-10-26T17:47:33;10.63;;;6.97;;
8104;SDS011;4095;48.942;9.104;2022-10-26T17:49:59;11.83;;;6.30;;
8104;SDS011;4095;48.942;9.104;2022-10-26T17:52:25;10.47;;;6.10;;
8104;SDS011;4095;48.942;9.104;2022-10-26T17:54:50;13.70;;;7.57;;
8104;SDS011;4095;48.942;9.104;2022-10-26T17:57:16;11.93;;;6.90;;
8104;SDS011;4095;48.942;9.104;2022-10-26T17:59:41;10.33;;;6.47;;
8104;SDS011;4095;48.942;9.104;2022-10-26T18:02:07;12.13;;;7.10;;
8104;SDS011;4095;48.942;9.104;2022-10-26T18:04:34;12.47;;;7.87;;
8104;SDS011;4095;48.942;9.104;2022-10-26T18:07:00;11.13;;;7.30;;
8104;SDS011;4095;48.942;9.104;2022-10-26T18:09:26;10.77;;;6.73;;
8104;SDS011;4095;48.942;9.104;2022-10-26T18:11:51;10.03;;;5.97;;
8104;SDS011;4095;48.942;9.104;2022-10-26T18:14:17;8.67;;;5.60;;
8104;SDS011;4095;48.942;9.104;2022-10-26T18:16:43;8.60;;;5.33;;
8104;SDS011;4095;48.942;9.104;2022-10-26T18:19:08;9.87;;;6.27;;